sensor_id;sensor_type;location;lat;lon;timestamp;P1;durP1;ratioP1;P2;durP2;ratioP2
3865;SDS011;1948;53.250;10.412;2023-04-06T00:00:02;8.17;;;4.57;;
3865;SDS011;1948;53.250;10.412;2023-04-06T00:02:31;8.57;;;5.27;;
3865;SDS011;1948;53.250;10.412;2023-04-06T00:04:58;6.27;;;5.33;;
3865;SDS011;1948;53.250;10.412;2023-04-06T00:07:25;5.27;;;4.80;;
3865;SDS011;1948;53.250;10.412;2023-04-06T00:09:54;6.27;;;5.63;;
3865;SDS011;1948;53.250;10.412;2023-04-06T00:12:23;5.63;;;5.23;;
3865;SDS011;1948;53.250;10.412;2023-04-06T00:14:51;6.03;;;5.50;;
3865;SDS011;1948;53.250;10.412;2023-04-06T00:17:20;5.30;;;4.90;;
3865;SDS011;1948;53.250;10.412;2023-04-06T00:19:47;5.53;;;5.03;;
3865;SDS011;1948;53.250;10.412;2023-04-06T00:22:14;9.37;;;5.17;;
3865;SDS011;1948;53.250;10.412;2023-04-06T00:24:42;16.83;;;6.80;;
3865;SDS011;1948;53.250;10.412;2023-04-06T00:27:09;6.87;;;5.50;;
3865;SDS011;1948;53.250;10.412;2023-04-06T00:29:36;11.53;;;5.80;;
3865;SDS011;1948;53.250;10.412;2023-04-06T00:32:06;5.97;;;5.40;;
3865;SDS011;1948;53.250;10.412;2023-04-06T00:34:33;6.07;;;5.47;;
3865;SDS011;1948;53.250;10.412;2023-04-06T00:37:03;8.43;;;4.87;;
3865;SDS011;1948;53.250;10.412;2023-04-06T00:39:31;5.40;;;5.07;;
3865;SDS011;1948;53.250;10.412;2023-04-06T00:41:58;6.17;;;5.57;;
3865;SDS011;1948;53.250;10.412;2023-04-06T00:44:26;8.17;;;5.40;;
3865;SDS011;1948;53.250;10.412;2023-04-06T00:46:58;7.60;;;5.07;;
3865;SDS011;1948;53.250;10.412;2023-04-06T00:49:25;5.67;;;5.17;;
3865;SDS011;1948;53.250;10.412;2023-04-06T00:51:53;6.43;;;4.80;;
3865;SDS011;1948;53.250;10.412;2023-04-06T00:54:20;6.37;;;5.20;;
3865;SDS011;1948;53.250;10.412;2023-04-06T00:56:50;5.13;;;4.80;;
3865;SDS011;1948;53.250;10.412;2023-04-06T00:59:23;7.80;;;5.60;;
3865;SDS011;1948;53.250;10.412;2023-04-06T01:01:55;5.37;;;4.90;;
3865;SDS011;1948;53.250;10.412;2023-04-06T01:04:26;8.23;;;4.97;;
3865;SDS011;1948;53.250;10.412;2023-04-06T01:06:53;6.33;;;5.30;;
3865;SDS011;1948;53.250;10.412;2023-04-06T01:09:20;5.07;;;4.80;;
3865;SDS011;1948;53.250;10.412;2023-04-06T01:11:48;6.60;;;5.20;;
3865;SDS011;1948;53.250;10.412;2023-04-06T01:14:16;13.47;;;4.87;;
3865;SDS011;1948;53.250;10.412;2023-04-06T01:16:43;5.67;;;5.23;;
3865;SDS011;1948;53.250;10.412;2023-04-06T01:19:11;15.33;;;5.23;;
3865;SDS011;1948;53.250;10.412;2023-04-06T01:21:41;6.00;;;5.40;;
3865;SDS011;1948;53.250;10.412;2023-04-06T01:24:08;6.20;;;5.40;;
3865;SDS011;1948;53.250;10.412;2023-04-06T01:26:36;6.17;;;5.67;;
3865;SDS011;1948;53.250;10.412;2023-04-06T01:29:04;5.67;;;5.20;;
3865;SDS011;1948;53.250;10.412;2023-04-06T01:31:31;6.37;;;5.80;;
3865;SDS011;1948;53.250;10.412;2023-04-06T01:33:59;7.30;;;5.37;;
3865;SDS011;1948;53.250;10.412;2023-04-06T01:36:26;6.10;;;5.70;;
3865;SDS011;1948;53.250;10.412;2023-04-06T01:38:54;5.57;;;4.90;;
3865;SDS011;1948;53.250;10.412;2023-04-06T01:41:23;5.07;;;4.70;;
3865;SDS011;1948;53.250;10.412;2023-04-06T01:43:53;6.10;;;5.57;;
3865;SDS011;1948;53.250;10.412;2023-04-06T01:46:22;5.00;;;4.70;;
3865;SDS011;1948;53.250;10.412;2023-04-06T01:48:49;5.90;;;5.17;;
3865;SDS011;1948;53.250;10.412;2023-04-06T01:51:17;5.10;;;4.63;;
3865;SDS011;1948;53.250;10.412;2023-04-06T01:53:50;5.57;;;5.17;;
3865;SDS011;1948;53.250;10.412;2023-04-06T01:56:20;5.33;;;4.83;;
3865;SDS011;1948;53.250;10.412;2023-04-06T01:58:47;7.90;;;5.80;;
3865;SDS011;1948;53.250;10.412;2023-04-06T02:01:14;5.50;;;5.00;;
3865;SDS011;1948;53.250;10.412;2023-04-06T02:03:42;10.23;;;5.20;;
3865;SDS011;1948;53.250;10.412;2023-04-06T02:06:09;5.40;;;4.90;;
3865;SDS011;1948;53.250;10.412;2023-04-06T02:08:36;4.87;;;4.57;;
3865;SDS011;1948;53.250;10.412;2023-04-06T02:11:03;5.00;;;4.70;;
3865;SDS011;1948;53.250;10.412;2023-04-06T02:13:32;5.57;;;4.70;;
3865;SDS011;1948;53.250;10.412;2023-04-06T02:16:00;5.60;;;5.10;;
3865;SDS011;1948;53.250;10.412;2023-04-06T02:18:30;6.07;;;4.87;;
3865;SDS011;1948;53.250;10.412;2023-04-06T02:21:00;4.37;;;4.27;;
3865;SDS011;1948;53.250;10.412;2023-04-06T02:23:30;5.40;;;5.10;;
3865;SDS011;1948;53.250;10.412;2023-04-06T02:25:59;8.10;;;5.60;;
3865;SDS011;1948;53.250;10.412;2023-04-06T02:28:28;5.67;;;5.27;;
3865;SDS011;1948;53.250;10.412;2023-04-06T02:30:56;10.60;;;6.20;;
3865;SDS011;1948;53.250;10.412;2023-04-06T02:33:23;6.10;;;5.60;;
3865;SDS011;1948;53.250;10.412;2023-04-06T02:35:50;5.63;;;5.17;;
3865;SDS011;1948;53.250;10.412;2023-04-06T02:38:18;6.27;;;5.67;;
3865;SDS011;1948;53.250;10.412;2023-04-06T02:40:45;8.03;;;6.20;;
3865;SDS011;1948;53.250;10.412;2023-04-06T02:43:12;7.23;;;5.70;;
3865;SDS011;1948;53.250;10.412;2023-04-06T02:45:44;5.37;;;4.97;;
3865;SDS011;1948;53.250;10.412;2023-04-06T02:48:13;5.80;;;5.30;;
3865;SDS011;1948;53.250;10.412;2023-04-06T02:50:41;5.27;;;5.00;;
3865;SDS011;1948;53.250;10.412;2023-04-06T02:53:08;7.13;;;5.50;;
3865;SDS011;1948;53.250;10.412;2023-04-06T02:55:37;5.83;;;5.30;;
3865;SDS011;1948;53.250;10.412;2023-04-06T02:58:05;9.33;;;6.37;;
3865;SDS011;1948;53.250;10.412;2023-04-06T03:00:35;6.40;;;5.80;;
3865;SDS011;1948;53.250;10.412;2023-04-06T03:03:03;5.50;;;5.27;;
3865;SDS011;1948;53.250;10.412;2023-04-06T03:05:30;6.10;;;5.80;;
3865;SDS011;1948;53.250;10.412;2023-04-06T03:07:58;9.67;;;6.60;;
3865;SDS011;1948;53.250;10.412;2023-04-06T03:10:25;8.07;;;5.30;;
3865;SDS011;1948;53.250;10.412;2023-04-06T03:12:52;5.17;;;4.87;;
3865;SDS011;1948;53.250;10.412;2023-04-06T03:15:21;10.40;;;6.00;;
3865;SDS011;1948;53.250;10.412;2023-04-06T03:17:53;7.30;;;6.60;;
3865;SDS011;1948;53.250;10.412;2023-04-06T03:20:23;6.23;;;5.80;;
3865;SDS011;1948;53.250;10.412;2023-04-06T03:22:50;6.93;;;5.33;;
3865;SDS011;1948;53.250;10.412;2023-04-06T03:25:17;6.63;;;6.23;;
3865;SDS011;1948;53.250;10.412;2023-04-06T03:27:47;5.73;;;5.20;;
3865;SDS011;1948;53.250;10.412;2023-04-06T03:30:17;5.20;;;4.77;;
3865;SDS011;1948;53.250;10.412;2023-04-06T03:32:46;5.70;;;5.40;;
3865;SDS011;1948;53.250;10.412;2023-04-06T03:35:14;6.10;;;5.60;;
3865;SDS011;1948;53.250;10.412;2023-04-06T03:37:44;6.17;;;5.57;;
3865;SDS011;1948;53.250;10.412;2023-04-06T03:40:11;8.77;;;6.00;;
3865;SDS011;1948;53.250;10.412;2023-04-06T03:42:38;6.60;;;6.00;;
3865;SDS011;1948;53.250;10.412;2023-04-06T03:45:05;10.43;;;5.80;;
3865;SDS011;1948;53.250;10.412;2023-04-06T03:47:35;6.97;;;5.30;;
3865;SDS011;1948;53.250;10.412;2023-04-06T03:50:03;14.20;;;5.87;;
3865;SDS011;1948;53.250;10.412;2023-04-06T03:52:31;8.20;;;5.83;;
3865;SDS011;1948;53.250;10.412;2023-04-06T03:54:58;7.43;;;6.73;;
3865;SDS011;1948;53.250;10.412;2023-04-06T03:57:27;6.70;;;6.10;;
3865;SDS011;1948;53.250;10.412;2023-04-06T03:59:59;5.53;;;5.10;;
3865;SDS011;1948;53.250;10.412;2023-04-06T04:02:26;6.33;;;5.73;;
3865;SDS011;1948;53.250;10.412;2023-04-06T04:04:58;8.80;;;5.87;;
3865;SDS011;1948;53.250;10.412;2023-04-06T04:07:26;5.77;;;5.37;;
3865;SDS011;1948;53.250;10.412;2023-04-06T04:09:53;8.67;;;5.97;;
3865;SDS011;1948;53.250;10.412;2023-04-06T04:12:20;6.80;;;6.20;;
3865;SDS011;1948;53.250;10.412;2023-04-06T04:14:47;6.63;;;6.13;;
3865;SDS011;1948;53.250;10.412;2023-04-06T04:17:14;5.97;;;5.30;;
3865;SDS011;1948;53.250;10.412;2023-04-06T04:19:44;5.73;;;5.30;;
3865;SDS011;1948;53.250;10.412;2023-04-06T04:22:11;6.37;;;5.83;;
3865;SDS011;1948;53.250;10.412;2023-04-06T04:24:38;9.60;;;5.43;;
3865;SDS011;1948;53.250;10.412;2023-04-06T04:27:05;6.97;;;6.43;;
3865;SDS011;1948;53.250;10.412;2023-04-06T04:29:37;10.53;;;6.60;;
3865;SDS011;1948;53.250;10.412;2023-04-06T04:32:04;6.60;;;6.10;;
3865;SDS011;1948;53.250;10.412;2023-04-06T04:34:32;8.10;;;6.57;;
3865;SDS011;1948;53.250;10.412;2023-04-06T04:36:59;7.93;;;6.70;;
3865;SDS011;1948;53.250;10.412;2023-04-06T04:39:31;10.90;;;6.50;;
3865;SDS011;1948;53.250;10.412;2023-04-06T04:41:58;6.27;;;5.97;;
3865;SDS011;1948;53.250;10.412;2023-04-06T04:44:25;6.27;;;5.73;;
3865;SDS011;1948;53.250;10.412;2023-04-06T04:46:55;8.20;;;5.90;;
3865;SDS011;1948;53.250;10.412;2023-04-06T04:49:23;8.73;;;6.37;;
3865;SDS011;1948;53.250;10.412;2023-04-06T04:51:50;9.33;;;5.93;;
3865;SDS011;1948;53.250;10.412;2023-04-06T04:54:20;9.60;;;6.70;;
3865;SDS011;1948;53.250;10.412;2023-04-06T04:56:47;11.80;;;6.63;;
3865;SDS011;1948;53.250;10.412;2023-04-06T04:59:14;7.07;;;6.47;;
3865;SDS011;1948;53.250;10.412;2023-04-06T05:01:43;10.07;;;7.00;;
3865;SDS011;1948;53.250;10.412;2023-04-06T05:04:21;7.40;;;6.80;;
3865;SDS011;1948;53.250;10.412;2023-04-06T05:06:49;8.67;;;6.70;;
3865;SDS011;1948;53.250;10.412;2023-04-06T05:09:16;10.20;;;7.40;;
3865;SDS011;1948;53.250;10.412;2023-04-06T05:11:46;14.37;;;7.97;;
3865;SDS011;1948;53.250;10.412;2023-04-06T05:14:13;12.43;;;7.17;;
3865;SDS011;1948;53.250;10.412;2023-04-06T05:16:42;10.07;;;6.77;;
3865;SDS011;1948;53.250;10.412;2023-04-06T05:19:09;8.90;;;7.17;;
3865;SDS011;1948;53.250;10.412;2023-04-06T05:21:38;7.63;;;6.80;;
3865;SDS011;1948;53.250;10.412;2023-04-06T05:24:07;11.70;;;7.53;;
3865;SDS011;1948;53.250;10.412;2023-04-06T05:26:34;12.80;;;7.50;;
3865;SDS011;1948;53.250;10.412;2023-04-06T05:29:02;6.87;;;6.30;;
3865;SDS011;1948;53.250;10.412;2023-04-06T05:31:34;11.27;;;7.20;;
3865;SDS011;1948;53.250;10.412;2023-04-06T05:34:01;47.87;;;8.70;;
3865;SDS011;1948;53.250;10.412;2023-04-06T05:36:30;11.53;;;7.93;;
3865;SDS011;1948;53.250;10.412;2023-04-06T05:38:58;16.27;;;7.83;;
3865;SDS011;1948;53.250;10.412;2023-04-06T05:41:25;18.40;;;8.43;;
3865;SDS011;1948;53.250;10.412;2023-04-06T05:43:52;7.57;;;6.87;;
3865;SDS011;1948;53.250;10.412;2023-04-06T05:46:22;9.93;;;7.90;;
3865;SDS011;1948;53.250;10.412;2023-04-06T05:48:52;10.20;;;7.80;;
3865;SDS011;1948;53.250;10.412;2023-04-06T05:51:21;11.83;;;7.03;;
3865;SDS011;1948;53.250;10.412;2023-04-06T05:53:51;7.93;;;7.33;;
3865;SDS011;1948;53.250;10.412;2023-04-06T05:56:18;11.17;;;7.70;;
3865;SDS011;1948;53.250;10.412;2023-04-06T05:58:45;9.83;;;7.70;;
3865;SDS011;1948;53.250;10.412;2023-04-06T06:01:12;12.43;;;7.10;;
3865;SDS011;1948;53.250;10.412;2023-04-06T06:03:39;8.20;;;7.60;;
3865;SDS011;1948;53.250;10.412;2023-04-06T06:06:09;19.50;;;7.63;;
3865;SDS011;1948;53.250;10.412;2023-04-06T06:08:36;8.43;;;7.60;;
3865;SDS011;1948;53.250;10.412;2023-04-06T06:11:03;19.00;;;8.40;;
3865;SDS011;1948;53.250;10.412;2023-04-06T06:13:33;11.90;;;8.07;;
3865;SDS011;1948;53.250;10.412;2023-04-06T06:16:05;8.00;;;7.30;;
3865;SDS011;1948;53.250;10.412;2023-04-06T06:18:32;7.70;;;7.00;;
3865;SDS011;1948;53.250;10.412;2023-04-06T06:20:59;15.30;;;8.10;;
3865;SDS011;1948;53.250;10.412;2023-04-06T06:23:30;8.30;;;6.10;;
3865;SDS011;1948;53.250;10.412;2023-04-06T06:25:59;11.20;;;6.17;;
3865;SDS011;1948;53.250;10.412;2023-04-06T06:28:27;6.50;;;5.90;;
3865;SDS011;1948;53.250;10.412;2023-04-06T06:30:56;9.70;;;6.50;;
3865;SDS011;1948;53.250;10.412;2023-04-06T06:33:27;6.50;;;5.80;;
3865;SDS011;1948;53.250;10.412;2023-04-06T06:35:54;10.90;;;5.40;;
3865;SDS011;1948;53.250;10.412;2023-04-06T06:38:23;6.30;;;5.53;;
3865;SDS011;1948;53.250;10.412;2023-04-06T06:40:53;11.30;;;5.67;;
3865;SDS011;1948;53.250;10.412;2023-04-06T06:43:23;6.27;;;5.20;;
3865;SDS011;1948;53.250;10.412;2023-04-06T06:45:50;6.17;;;5.20;;
3865;SDS011;1948;53.250;10.412;2023-04-06T06:48:17;6.23;;;5.87;;
3865;SDS011;1948;53.250;10.412;2023-04-06T06:50:44;5.97;;;5.20;;
3865;SDS011;1948;53.250;10.412;2023-04-06T06:53:14;12.23;;;5.30;;
3865;SDS011;1948;53.250;10.412;2023-04-06T06:55:44;6.20;;;5.70;;
3865;SDS011;1948;53.250;10.412;2023-04-06T06:58:11;5.40;;;5.10;;
3865;SDS011;1948;53.250;10.412;2023-04-06T07:00:38;10.13;;;6.20;;
3865;SDS011;1948;53.250;10.412;2023-04-06T07:03:05;7.47;;;4.90;;
3865;SDS011;1948;53.250;10.412;2023-04-06T07:05:35;4.87;;;4.53;;
3865;SDS011;1948;53.250;10.412;2023-04-06T07:08:06;5.13;;;4.83;;
3865;SDS011;1948;53.250;10.412;2023-04-06T07:10:33;6.27;;;4.87;;
3865;SDS011;1948;53.250;10.412;2023-04-06T07:13:00;6.20;;;5.50;;
3865;SDS011;1948;53.250;10.412;2023-04-06T07:15:32;6.13;;;5.53;;
3865;SDS011;1948;53.250;10.412;2023-04-06T07:18:01;6.27;;;5.77;;
3865;SDS011;1948;53.250;10.412;2023-04-06T07:20:28;6.83;;;6.17;;
3865;SDS011;1948;53.250;10.412;2023-04-06T07:22:56;8.43;;;5.97;;
3865;SDS011;1948;53.250;10.412;2023-04-06T07:25:30;6.60;;;5.33;;
3865;SDS011;1948;53.250;10.412;2023-04-06T07:27:57;8.57;;;6.03;;
3865;SDS011;1948;53.250;10.412;2023-04-06T07:30:24;5.30;;;4.90;;
3865;SDS011;1948;53.250;10.412;2023-04-06T07:32:57;8.77;;;5.33;;
3865;SDS011;1948;53.250;10.412;2023-04-06T07:35:27;6.93;;;5.80;;
3865;SDS011;1948;53.250;10.412;2023-04-06T07:37:56;11.47;;;5.63;;
3865;SDS011;1948;53.250;10.412;2023-04-06T07:40:23;6.50;;;5.87;;
3865;SDS011;1948;53.250;10.412;2023-04-06T07:42:52;6.90;;;6.20;;
3865;SDS011;1948;53.250;10.412;2023-04-06T07:45:23;6.00;;;5.43;;
3865;SDS011;1948;53.250;10.412;2023-04-06T07:47:55;6.20;;;5.50;;
3865;SDS011;1948;53.250;10.412;2023-04-06T07:50:22;6.00;;;5.50;;
3865;SDS011;1948;53.250;10.412;2023-04-06T07:52:52;6.10;;;5.60;;
3865;SDS011;1948;53.250;10.412;2023-04-06T07:55:23;5.83;;;5.20;;
3865;SDS011;1948;53.250;10.412;2023-04-06T07:57:53;8.70;;;5.57;;
3865;SDS011;1948;53.250;10.412;2023-04-06T08:00:20;5.13;;;4.40;;
3865;SDS011;1948;53.250;10.412;2023-04-06T08:02:48;8.20;;;5.70;;
3865;SDS011;1948;53.250;10.412;2023-04-06T08:05:15;15.20;;;5.37;;
3865;SDS011;1948;53.250;10.412;2023-04-06T08:07:45;5.20;;;4.90;;
3865;SDS011;1948;53.250;10.412;2023-04-06T08:10:12;6.77;;;5.57;;
3865;SDS011;1948;53.250;10.412;2023-04-06T08:12:39;8.23;;;5.90;;
3865;SDS011;1948;53.250;10.412;2023-04-06T08:15:07;7.33;;;6.00;;
3865;SDS011;1948;53.250;10.412;2023-04-06T08:17:34;6.30;;;5.70;;
3865;SDS011;1948;53.250;10.412;2023-04-06T08:20:01;5.70;;;5.10;;
3865;SDS011;1948;53.250;10.412;2023-04-06T08:22:30;9.50;;;5.40;;
3865;SDS011;1948;53.250;10.412;2023-04-06T08:24:59;5.83;;;5.43;;
3865;SDS011;1948;53.250;10.412;2023-04-06T08:27:26;6.23;;;5.63;;
3865;SDS011;1948;53.250;10.412;2023-04-06T08:29:56;5.70;;;5.20;;
3865;SDS011;1948;53.250;10.412;2023-04-06T08:32:23;7.20;;;5.60;;
3865;SDS011;1948;53.250;10.412;2023-04-06T08:34:55;6.03;;;5.43;;
3865;SDS011;1948;53.250;10.412;2023-04-06T08:37:24;5.10;;;4.60;;
3865;SDS011;1948;53.250;10.412;2023-04-06T08:39:51;5.27;;;4.97;;
3865;SDS011;1948;53.250;10.412;2023-04-06T08:42:21;6.63;;;4.80;;
3865;SDS011;1948;53.250;10.412;2023-04-06T08:44:52;7.70;;;5.93;;
3865;SDS011;1948;53.250;10.412;2023-04-06T08:47:21;5.03;;;4.63;;
3865;SDS011;1948;53.250;10.412;2023-04-06T08:49:50;5.93;;;5.10;;
3865;SDS011;1948;53.250;10.412;2023-04-06T08:52:23;5.70;;;5.30;;
3865;SDS011;1948;53.250;10.412;2023-04-06T08:54:58;5.97;;;5.37;;
3865;SDS011;1948;53.250;10.412;2023-04-06T08:57:26;6.20;;;5.60;;
3865;SDS011;1948;53.250;10.412;2023-04-06T08:59:55;5.47;;;5.10;;
3865;SDS011;1948;53.250;10.412;2023-04-06T09:02:25;6.00;;;5.23;;
3865;SDS011;1948;53.250;10.412;2023-04-06T09:04:53;5.87;;;5.47;;
3865;SDS011;1948;53.250;10.412;2023-04-06T09:07:21;6.30;;;5.47;;
3865;SDS011;1948;53.250;10.412;2023-04-06T09:09:48;7.27;;;5.50;;
3865;SDS011;1948;53.250;10.412;2023-04-06T09:14:52;6.00;;;5.70;;
3865;SDS011;1948;53.250;10.412;2023-04-06T09:17:27;7.03;;;5.83;;
3865;SDS011;1948;53.250;10.412;2023-04-06T09:19:59;5.70;;;5.30;;
3865;SDS011;1948;53.250;10.412;2023-04-06T09:22:37;5.70;;;5.20;;
3865;SDS011;1948;53.250;10.412;2023-04-06T09:25:06;6.43;;;5.90;;
3865;SDS011;1948;53.250;10.412;2023-04-06T09:27:35;5.10;;;4.80;;
3865;SDS011;1948;53.250;10.412;2023-04-06T09:30:08;6.53;;;5.47;;
3865;SDS011;1948;53.250;10.412;2023-04-06T09:35:17;6.43;;;5.97;;
3865;SDS011;1948;53.250;10.412;2023-04-06T09:37:49;7.63;;;6.83;;
3865;SDS011;1948;53.250;10.412;2023-04-06T09:40:18;18.27;;;6.63;;
3865;SDS011;1948;53.250;10.412;2023-04-06T09:42:51;8.97;;;7.27;;
3865;SDS011;1948;53.250;10.412;2023-04-06T09:45:20;6.87;;;6.30;;
3865;SDS011;1948;53.250;10.412;2023-04-06T09:47:47;15.00;;;7.23;;
3865;SDS011;1948;53.250;10.412;2023-04-06T09:50:19;7.33;;;6.60;;
3865;SDS011;1948;53.250;10.412;2023-04-06T09:52:47;11.43;;;7.60;;
3865;SDS011;1948;53.250;10.412;2023-04-06T09:55:22;12.47;;;6.10;;
3865;SDS011;1948;53.250;10.412;2023-04-06T09:58:04;16.63;;;5.73;;
3865;SDS011;1948;53.250;10.412;2023-04-06T10:00:40;7.00;;;6.57;;
3865;SDS011;1948;53.250;10.412;2023-04-06T10:05:59;7.50;;;6.90;;
3865;SDS011;1948;53.250;10.412;2023-04-06T10:08:32;6.37;;;5.77;;
3865;SDS011;1948;53.250;10.412;2023-04-06T10:11:00;8.30;;;6.83;;
3865;SDS011;1948;53.250;10.412;2023-04-06T10:13:31;8.43;;;7.80;;
3865;SDS011;1948;53.250;10.412;2023-04-06T10:15:59;11.90;;;7.10;;
3865;SDS011;1948;53.250;10.412;2023-04-06T10:18:30;8.23;;;7.50;;
3865;SDS011;1948;53.250;10.412;2023-04-06T10:21:00;7.70;;;7.00;;
3865;SDS011;1948;53.250;10.412;2023-04-06T10:23:51;11.47;;;8.27;;
3865;SDS011;1948;53.250;10.412;2023-04-06T10:26:20;9.10;;;7.70;;
3865;SDS011;1948;53.250;10.412;2023-04-06T10:28:51;8.00;;;7.30;;
3865;SDS011;1948;53.250;10.412;2023-04-06T10:31:28;9.70;;;7.40;;
3865;SDS011;1948;53.250;10.412;2023-04-06T10:33:58;8.43;;;7.50;;
3865;SDS011;1948;53.250;10.412;2023-04-06T10:36:32;7.60;;;7.00;;
3865;SDS011;1948;53.250;10.412;2023-04-06T10:39:02;8.47;;;7.67;;
3865;SDS011;1948;53.250;10.412;2023-04-06T10:41:36;8.13;;;7.40;;
3865;SDS011;1948;53.250;10.412;2023-04-06T10:44:16;8.77;;;7.90;;
3865;SDS011;1948;53.250;10.412;2023-04-06T10:46:57;8.10;;;7.30;;
3865;SDS011;1948;53.250;10.412;2023-04-06T10:49:29;8.03;;;7.30;;
3865;SDS011;1948;53.250;10.412;2023-04-06T10:51:56;7.00;;;6.50;;
3865;SDS011;1948;53.250;10.412;2023-04-06T10:54:24;13.03;;;7.17;;
3865;SDS011;1948;53.250;10.412;2023-04-06T10:56:55;7.80;;;7.20;;
3865;SDS011;1948;53.250;10.412;2023-04-06T10:59:23;8.40;;;7.60;;
3865;SDS011;1948;53.250;10.412;2023-04-06T11:01:51;8.97;;;8.10;;
3865;SDS011;1948;53.250;10.412;2023-04-06T11:04:19;15.83;;;8.13;;
3865;SDS011;1948;53.250;10.412;2023-04-06T11:06:47;9.00;;;8.10;;
3865;SDS011;1948;53.250;10.412;2023-04-06T11:09:24;8.50;;;7.77;;
3865;SDS011;1948;53.250;10.412;2023-04-06T11:11:56;8.70;;;7.63;;
3865;SDS011;1948;53.250;10.412;2023-04-06T11:14:23;8.47;;;7.57;;
3865;SDS011;1948;53.250;10.412;2023-04-06T11:16:53;11.13;;;8.17;;
3865;SDS011;1948;53.250;10.412;2023-04-06T11:19:23;8.87;;;8.10;;
3865;SDS011;1948;53.250;10.412;2023-04-06T11:21:53;11.20;;;7.57;;
3865;SDS011;1948;53.250;10.412;2023-04-06T11:24:21;9.73;;;7.90;;
3865;SDS011;1948;53.250;10.412;2023-04-06T11:26:54;8.80;;;8.20;;
3865;SDS011;1948;53.250;10.412;2023-04-06T11:29:30;10.63;;;7.33;;
3865;SDS011;1948;53.250;10.412;2023-04-06T11:32:05;11.23;;;7.63;;
3865;SDS011;1948;53.250;10.412;2023-04-06T11:34:36;10.83;;;8.40;;
3865;SDS011;1948;53.250;10.412;2023-04-06T11:37:11;9.30;;;8.50;;
3865;SDS011;1948;53.250;10.412;2023-04-06T11:39:51;9.33;;;8.50;;
3865;SDS011;1948;53.250;10.412;2023-04-06T11:42:23;13.93;;;10.07;;
3865;SDS011;1948;53.250;10.412;2023-04-06T11:44:56;7.70;;;7.10;;
3865;SDS011;1948;53.250;10.412;2023-04-06T11:47:30;9.27;;;7.53;;
3865;SDS011;1948;53.250;10.412;2023-04-06T11:50:06;11.33;;;8.90;;
3865;SDS011;1948;53.250;10.412;2023-04-06T11:52:43;10.53;;;8.67;;
3865;SDS011;1948;53.250;10.412;2023-04-06T11:55:17;8.60;;;7.83;;
3865;SDS011;1948;53.250;10.412;2023-04-06T11:57:45;9.43;;;8.57;;
3865;SDS011;1948;53.250;10.412;2023-04-06T12:00:16;10.93;;;8.43;;
3865;SDS011;1948;53.250;10.412;2023-04-06T12:02:47;10.00;;;9.07;;
3865;SDS011;1948;53.250;10.412;2023-04-06T12:05:18;9.43;;;8.63;;
3865;SDS011;1948;53.250;10.412;2023-04-06T12:07:45;9.90;;;9.10;;
3865;SDS011;1948;53.250;10.412;2023-04-06T12:10:12;10.07;;;9.13;;
3865;SDS011;1948;53.250;10.412;2023-04-06T12:12:44;10.90;;;9.10;;
3865;SDS011;1948;53.250;10.412;2023-04-06T12:15:11;9.60;;;8.80;;
3865;SDS011;1948;53.250;10.412;2023-04-06T12:17:41;9.40;;;8.70;;
3865;SDS011;1948;53.250;10.412;2023-04-06T12:20:08;9.97;;;9.03;;
3865;SDS011;1948;53.250;10.412;2023-04-06T12:22:53;10.70;;;8.93;;
3865;SDS011;1948;53.250;10.412;2023-04-06T12:25:20;10.00;;;9.17;;
3865;SDS011;1948;53.250;10.412;2023-04-06T12:27:50;10.00;;;8.87;;
3865;SDS011;1948;53.250;10.412;2023-04-06T12:30:17;11.77;;;9.20;;
3865;SDS011;1948;53.250;10.412;2023-04-06T12:32:44;10.37;;;9.30;;
3865;SDS011;1948;53.250;10.412;2023-04-06T12:35:15;10.17;;;9.17;;
3865;SDS011;1948;53.250;10.412;2023-04-06T12:37:42;10.40;;;9.60;;
3865;SDS011;1948;53.250;10.412;2023-04-06T12:40:12;16.33;;;8.90;;
3865;SDS011;1948;53.250;10.412;2023-04-06T12:42:41;11.20;;;10.13;;
3865;SDS011;1948;53.250;10.412;2023-04-06T12:45:08;12.10;;;9.07;;
3865;SDS011;1948;53.250;10.412;2023-04-06T12:47:38;10.17;;;9.17;;
3865;SDS011;1948;53.250;10.412;2023-04-06T12:50:13;10.53;;;9.60;;
3865;SDS011;1948;53.250;10.412;2023-04-06T12:52:40;10.17;;;9.27;;
3865;SDS011;1948;53.250;10.412;2023-04-06T12:55:07;20.67;;;9.43;;
3865;SDS011;1948;53.250;10.412;2023-04-06T12:57:35;9.70;;;8.90;;
3865;SDS011;1948;53.250;10.412;2023-04-06T13:00:05;10.70;;;8.90;;
3865;SDS011;1948;53.250;10.412;2023-04-06T13:02:34;10.17;;;9.17;;
3865;SDS011;1948;53.250;10.412;2023-04-06T13:05:02;10.40;;;9.03;;
3865;SDS011;1948;53.250;10.412;2023-04-06T13:07:31;14.07;;;9.90;;
3865;SDS011;1948;53.250;10.412;2023-04-06T13:09:58;10.63;;;9.50;;
3865;SDS011;1948;53.250;10.412;2023-04-06T13:12:26;11.93;;;10.60;;
3865;SDS011;1948;53.250;10.412;2023-04-06T13:14:53;11.00;;;9.93;;
3865;SDS011;1948;53.250;10.412;2023-04-06T13:17:21;13.03;;;9.83;;
3865;SDS011;1948;53.250;10.412;2023-04-06T13:19:52;10.37;;;9.23;;
3865;SDS011;1948;53.250;10.412;2023-04-06T13:22:20;11.93;;;10.30;;
3865;SDS011;1948;53.250;10.412;2023-04-06T13:24:49;10.90;;;9.80;;
3865;SDS011;1948;53.250;10.412;2023-04-06T13:27:19;11.20;;;9.40;;
3865;SDS011;1948;53.250;10.412;2023-04-06T13:29:48;10.70;;;9.60;;
3865;SDS011;1948;53.250;10.412;2023-04-06T13:32:18;10.50;;;9.50;;
3865;SDS011;1948;53.250;10.412;2023-04-06T13:34:48;10.50;;;9.47;;
3865;SDS011;1948;53.250;10.412;2023-04-06T13:37:19;14.10;;;10.07;;
3865;SDS011;1948;53.250;10.412;2023-04-06T13:39:46;15.90;;;10.17;;
3865;SDS011;1948;53.250;10.412;2023-04-06T13:42:14;10.90;;;9.80;;
3865;SDS011;1948;53.250;10.412;2023-04-06T13:44:43;11.03;;;9.77;;
3865;SDS011;1948;53.250;10.412;2023-04-06T13:47:14;12.80;;;10.47;;
3865;SDS011;1948;53.250;10.412;2023-04-06T13:49:42;10.30;;;9.33;;
3865;SDS011;1948;53.250;10.412;2023-04-06T13:52:09;12.03;;;9.93;;
3865;SDS011;1948;53.250;10.412;2023-04-06T13:54:36;16.77;;;9.80;;
3865;SDS011;1948;53.250;10.412;2023-04-06T13:57:06;13.73;;;10.13;;
3865;SDS011;1948;53.250;10.412;2023-04-06T13:59:36;13.80;;;8.87;;
3865;SDS011;1948;53.250;10.412;2023-04-06T14:02:07;13.83;;;10.33;;
3865;SDS011;1948;53.250;10.412;2023-04-06T14:04:36;10.53;;;9.63;;
3865;SDS011;1948;53.250;10.412;2023-04-06T14:07:04;13.23;;;9.00;;
3865;SDS011;1948;53.250;10.412;2023-04-06T14:09:34;13.73;;;9.80;;
3865;SDS011;1948;53.250;10.412;2023-04-06T14:12:04;12.47;;;10.40;;
3865;SDS011;1948;53.250;10.412;2023-04-06T14:14:31;18.13;;;11.30;;
3865;SDS011;1948;53.250;10.412;2023-04-06T14:16:58;10.90;;;9.50;;
3865;SDS011;1948;53.250;10.412;2023-04-06T14:19:29;11.93;;;10.53;;
3865;SDS011;1948;53.250;10.412;2023-04-06T14:21:56;14.10;;;9.90;;
3865;SDS011;1948;53.250;10.412;2023-04-06T14:24:26;10.20;;;9.20;;
3865;SDS011;1948;53.250;10.412;2023-04-06T14:26:53;11.27;;;10.27;;
3865;SDS011;1948;53.250;10.412;2023-04-06T14:29:20;14.70;;;9.80;;
3865;SDS011;1948;53.250;10.412;2023-04-06T14:31:47;11.07;;;9.70;;
3865;SDS011;1948;53.250;10.412;2023-04-06T14:34:15;11.63;;;10.43;;
3865;SDS011;1948;53.250;10.412;2023-04-06T14:36:43;12.70;;;9.50;;
3865;SDS011;1948;53.250;10.412;2023-04-06T14:39:10;11.70;;;9.90;;
3865;SDS011;1948;53.250;10.412;2023-04-06T14:41:37;14.40;;;9.87;;
3865;SDS011;1948;53.250;10.412;2023-04-06T14:44:04;14.27;;;10.00;;
3865;SDS011;1948;53.250;10.412;2023-04-06T14:46:38;13.07;;;9.20;;
3865;SDS011;1948;53.250;10.412;2023-04-06T14:49:08;15.93;;;9.07;;
3865;SDS011;1948;53.250;10.412;2023-04-06T14:51:35;13.57;;;9.57;;
3865;SDS011;1948;53.250;10.412;2023-04-06T14:54:03;11.77;;;10.53;;
3865;SDS011;1948;53.250;10.412;2023-04-06T14:56:30;15.20;;;10.40;;
3865;SDS011;1948;53.250;10.412;2023-04-06T14:59:00;19.30;;;10.93;;
3865;SDS011;1948;53.250;10.412;2023-04-06T15:01:33;20.87;;;10.33;;
3865;SDS011;1948;53.250;10.412;2023-04-06T15:04:04;11.00;;;9.20;;
3865;SDS011;1948;53.250;10.412;2023-04-06T15:06:34;10.20;;;9.30;;
3865;SDS011;1948;53.250;10.412;2023-04-06T15:09:04;10.30;;;9.30;;
3865;SDS011;1948;53.250;10.412;2023-04-06T15:11:31;16.13;;;9.80;;
3865;SDS011;1948;53.250;10.412;2023-04-06T15:13:59;11.63;;;10.07;;